sensor_id;sensor_type;location;lat;lon;timestamp;P1;durP1;ratioP1;P2;durP2;ratioP2
30062;SDS011;16889;67.864;24.990;2022-11-21T00:00:45;2.97;;;1.20;;
30062;SDS011;16889;67.864;24.990;2022-11-21T00:05:33;1.58;;;0.75;;
30062;SDS011;16889;67.864;24.990;2022-11-21T00:10:23;2.45;;;1.17;;
30062;SDS011;16889;67.864;24.990;2022-11-21T00:15:10;1.13;;;0.88;;
30062;SDS011;16889;67.864;24.990;2022-11-21T00:19:56;2.70;;;1.08;;
30062;SDS011;16889;67.864;24.990;2022-11-21T00:24:41;1.77;;;0.93;;
30062;SDS011;16889;67.864;24.990;2022-11-21T00:29:27;1.92;;;1.10;;
30062;SDS011;16889;67.864;24.990;2022-11-21T00:34:13;1.90;;;0.98;;
30062;SDS011;16889;67.864;24.990;2022-11-21T00:39:00;1.33;;;0.88;;
30062;SDS011;16889;67.864;24.990;2022-11-21T00:43:46;3.60;;;1.00;;
30062;SDS011;16889;67.864;24.990;2022-11-21T00:48:32;2.53;;;0.90;;
30062;SDS011;16889;67.864;24.990;2022-11-21T00:53:18;2.50;;;1.02;;
30062;SDS011;16889;67.864;24.990;2022-11-21T00:58:04;1.83;;;1.00;;
30062;SDS011;16889;67.864;24.990;2022-11-21T01:02:50;2.17;;;0.90;;
30062;SDS011;16889;67.864;24.990;2022-11-21T01:07:36;1.85;;;1.10;;
30062;SDS011;16889;67.864;24.990;2022-11-21T01:12:22;3.58;;;1.27;;
30062;SDS011;16889;67.864;24.990;2022-11-21T01:17:08;2.92;;;1.00;;
30062;SDS011;16889;67.864;24.990;2022-11-21T01:21:54;2.28;;;1.10;;
30062;SDS011;16889;67.864;24.990;2022-11-21T01:26:40;1.75;;;1.10;;
30062;SDS011;16889;67.864;24.990;2022-11-21T01:31:27;3.85;;;1.15;;
30062;SDS011;16889;67.864;24.990;2022-11-21T01:36:15;3.15;;;1.27;;
30062;SDS011;16889;67.864;24.990;2022-11-21T01:41:01;4.45;;;1.42;;
30062;SDS011;16889;67.864;24.990;2022-11-21T01:50:52;9.65;;;1.55;;
30062;SDS011;16889;67.864;24.990;2022-11-21T01:55:40;5.68;;;1.25;;
30062;SDS011;16889;67.864;24.990;2022-11-21T02:00:28;2.28;;;1.20;;
30062;SDS011;16889;67.864;24.990;2022-11-21T02:05:22;5.63;;;1.10;;
30062;SDS011;16889;67.864;24.990;2022-11-21T02:10:12;4.63;;;1.30;;
30062;SDS011;16889;67.864;24.990;2022-11-21T02:15:00;5.47;;;1.23;;
30062;SDS011;16889;67.864;24.990;2022-11-21T02:24:45;3.00;;;1.05;;
30062;SDS011;16889;67.864;24.990;2022-11-21T02:29:37;3.80;;;1.20;;
30062;SDS011;16889;67.864;24.990;2022-11-21T02:34:24;1.98;;;1.25;;
30062;SDS011;16889;67.864;24.990;2022-11-21T02:39:12;2.22;;;1.10;;
30062;SDS011;16889;67.864;24.990;2022-11-21T02:44:03;3.65;;;1.15;;
30062;SDS011;16889;67.864;24.990;2022-11-21T02:48:57;4.90;;;1.30;;
30062;SDS011;16889;67.864;24.990;2022-11-21T02:53:43;1.27;;;0.90;;
30062;SDS011;16889;67.864;24.990;2022-11-21T02:58:30;3.85;;;0.98;;
30062;SDS011;16889;67.864;24.990;2022-11-21T03:03:16;3.58;;;1.58;;
30062;SDS011;16889;67.864;24.990;2022-11-21T03:08:02;2.97;;;1.10;;
30062;SDS011;16889;67.864;24.990;2022-11-21T03:12:49;5.07;;;1.30;;
30062;SDS011;16889;67.864;24.990;2022-11-21T03:17:35;1.95;;;0.90;;
30062;SDS011;16889;67.864;24.990;2022-11-21T03:22:21;3.55;;;1.17;;
30062;SDS011;16889;67.864;24.990;2022-11-21T03:27:07;11.52;;;1.50;;
30062;SDS011;16889;67.864;24.990;2022-11-21T03:31:53;8.43;;;1.00;;
30062;SDS011;16889;67.864;24.990;2022-11-21T03:36:39;4.75;;;1.30;;
30062;SDS011;16889;67.864;24.990;2022-11-21T03:41:25;2.35;;;1.23;;
30062;SDS011;16889;67.864;24.990;2022-11-21T03:46:14;3.95;;;1.17;;
30062;SDS011;16889;67.864;24.990;2022-11-21T03:51:00;4.20;;;0.90;;
30062;SDS011;16889;67.864;24.990;2022-11-21T03:55:46;2.63;;;0.98;;
30062;SDS011;16889;67.864;24.990;2022-11-21T04:00:32;2.90;;;1.27;;
30062;SDS011;16889;67.864;24.990;2022-11-21T04:05:18;9.30;;;1.55;;
30062;SDS011;16889;67.864;24.990;2022-11-21T04:10:04;4.15;;;1.48;;
30062;SDS011;16889;67.864;24.990;2022-11-21T04:14:50;5.32;;;1.20;;
30062;SDS011;16889;67.864;24.990;2022-11-21T04:19:36;4.90;;;1.05;;
30062;SDS011;16889;67.864;24.990;2022-11-21T04:24:22;3.55;;;1.40;;
30062;SDS011;16889;67.864;24.990;2022-11-21T04:29:08;6.68;;;1.30;;
30062;SDS011;16889;67.864;24.990;2022-11-21T04:33:54;3.92;;;1.15;;
30062;SDS011;16889;67.864;24.990;2022-11-21T04:38:40;1.80;;;1.27;;
30062;SDS011;16889;67.864;24.990;2022-11-21T04:43:26;2.72;;;1.17;;
30062;SDS011;16889;67.864;24.990;2022-11-21T04:48:12;6.35;;;1.38;;
30062;SDS011;16889;67.864;24.990;2022-11-21T04:52:58;2.30;;;1.40;;
30062;SDS011;16889;67.864;24.990;2022-11-21T04:57:44;2.00;;;1.02;;
30062;SDS011;16889;67.864;24.990;2022-11-21T05:02:30;2.88;;;1.17;;
30062;SDS011;16889;67.864;24.990;2022-11-21T05:07:17;2.47;;;1.05;;
30062;SDS011;16889;67.864;24.990;2022-11-21T05:12:04;3.03;;;1.13;;
30062;SDS011;16889;67.864;24.990;2022-11-21T05:17:08;1.98;;;1.13;;
30062;SDS011;16889;67.864;24.990;2022-11-21T05:21:54;1.60;;;0.95;;
30062;SDS011;16889;67.864;24.990;2022-11-21T05:26:40;2.15;;;1.00;;
30062;SDS011;16889;67.864;24.990;2022-11-21T05:31:26;2.67;;;1.02;;
30062;SDS011;16889;67.864;24.990;2022-11-21T05:36:12;2.03;;;1.00;;
30062;SDS011;16889;67.864;24.990;2022-11-21T05:40:58;2.08;;;1.05;;
30062;SDS011;16889;67.864;24.990;2022-11-21T05:45:44;4.13;;;1.33;;
30062;SDS011;16889;67.864;24.990;2022-11-21T05:50:33;0.77;;;0.77;;
30062;SDS011;16889;67.864;24.990;2022-11-21T05:55:20;2.25;;;0.75;;
30062;SDS011;16889;67.864;24.990;2022-11-21T06:00:06;2.55;;;0.82;;
30062;SDS011;16889;67.864;24.990;2022-11-21T06:04:53;3.67;;;1.15;;
30062;SDS011;16889;67.864;24.990;2022-11-21T06:09:39;2.05;;;0.90;;
30062;SDS011;16889;67.864;24.990;2022-11-21T06:14:25;3.72;;;1.20;;
30062;SDS011;16889;67.864;24.990;2022-11-21T06:19:10;2.22;;;1.10;;
30062;SDS011;16889;67.864;24.990;2022-11-21T06:23:57;2.20;;;0.85;;
30062;SDS011;16889;67.864;24.990;2022-11-21T06:28:43;2.55;;;1.38;;
30062;SDS011;16889;67.864;24.990;2022-11-21T06:33:30;2.28;;;0.93;;
30062;SDS011;16889;67.864;24.990;2022-11-21T06:38:16;2.47;;;1.20;;
30062;SDS011;16889;67.864;24.990;2022-11-21T06:43:03;2.63;;;1.38;;
30062;SDS011;16889;67.864;24.990;2022-11-21T06:47:49;0.65;;;0.63;;
30062;SDS011;16889;67.864;24.990;2022-11-21T06:52:35;3.13;;;0.98;;
30062;SDS011;16889;67.864;24.990;2022-11-21T06:57:21;1.33;;;0.63;;
30062;SDS011;16889;67.864;24.990;2022-11-21T07:02:13;0.93;;;0.70;;
30062;SDS011;16889;67.864;24.990;2022-11-21T07:06:59;1.95;;;1.13;;
30062;SDS011;16889;67.864;24.990;2022-11-21T07:11:45;11.15;;;1.15;;
30062;SDS011;16889;67.864;24.990;2022-11-21T07:16:32;1.80;;;0.90;;
30062;SDS011;16889;67.864;24.990;2022-11-21T07:21:18;1.83;;;1.10;;
30062;SDS011;16889;67.864;24.990;2022-11-21T07:26:05;3.28;;;1.23;;
30062;SDS011;16889;67.864;24.990;2022-11-21T07:30:54;1.95;;;1.02;;
30062;SDS011;16889;67.864;24.990;2022-11-21T07:35:41;5.38;;;0.82;;
30062;SDS011;16889;67.864;24.990;2022-11-21T07:40:28;1.52;;;0.90;;
30062;SDS011;16889;67.864;24.990;2022-11-21T07:45:17;3.17;;;1.10;;
30062;SDS011;16889;67.864;24.990;2022-11-21T07:50:04;2.70;;;1.00;;
30062;SDS011;16889;67.864;24.990;2022-11-21T07:54:51;2.88;;;1.23;;
30062;SDS011;16889;67.864;24.990;2022-11-21T07:59:37;1.58;;;0.88;;
30062;SDS011;16889;67.864;24.990;2022-11-21T08:04:23;2.10;;;1.15;;
30062;SDS011;16889;67.864;24.990;2022-11-21T08:09:10;3.08;;;0.90;;
30062;SDS011;16889;67.864;24.990;2022-11-21T08:13:57;1.38;;;0.80;;
30062;SDS011;16889;67.864;24.990;2022-11-21T08:18:43;3.17;;;0.98;;
30062;SDS011;16889;67.864;24.990;2022-11-21T08:23:30;3.55;;;0.85;;
30062;SDS011;16889;67.864;24.990;2022-11-21T08:28:16;1.17;;;0.60;;
30062;SDS011;16889;67.864;24.990;2022-11-21T08:33:03;1.45;;;0.98;;
30062;SDS011;16889;67.864;24.990;2022-11-21T08:37:59;1.88;;;1.00;;
30062;SDS011;16889;67.864;24.990;2022-11-21T08:42:46;1.42;;;0.82;;
30062;SDS011;16889;67.864;24.990;2022-11-21T08:47:32;2.38;;;0.73;;
30062;SDS011;16889;67.864;24.990;2022-11-21T08:52:18;3.35;;;0.90;;
30062;SDS011;16889;67.864;24.990;2022-11-21T08:57:04;1.25;;;0.90;;
30062;SDS011;16889;67.864;24.990;2022-11-21T09:01:50;3.35;;;1.20;;
30062;SDS011;16889;67.864;24.990;2022-11-21T09:06:37;2.13;;;0.98;;
30062;SDS011;16889;67.864;24.990;2022-11-21T09:11:23;1.83;;;0.80;;
30062;SDS011;16889;67.864;24.990;2022-11-21T09:16:10;1.15;;;0.90;;
30062;SDS011;16889;67.864;24.990;2022-11-21T09:26:01;1.45;;;0.90;;
30062;SDS011;16889;67.864;24.990;2022-11-21T09:30:47;4.18;;;1.02;;
30062;SDS011;16889;67.864;24.990;2022-11-21T09:35:33;1.55;;;0.90;;
30062;SDS011;16889;67.864;24.990;2022-11-21T09:40:19;9.60;;;1.35;;
30062;SDS011;16889;67.864;24.990;2022-11-21T09:45:13;5.07;;;1.33;;
30062;SDS011;16889;67.864;24.990;2022-11-21T09:55:00;2.60;;;0.85;;
30062;SDS011;16889;67.864;24.990;2022-11-21T09:59:49;2.83;;;1.20;;
30062;SDS011;16889;67.864;24.990;2022-11-21T10:04:36;1.05;;;0.70;;
30062;SDS011;16889;67.864;24.990;2022-11-21T10:14:50;2.40;;;0.90;;
30062;SDS011;16889;67.864;24.990;2022-11-21T10:19:44;1.67;;;0.90;;
30062;SDS011;16889;67.864;24.990;2022-11-21T10:24:47;0.82;;;0.70;;
30062;SDS011;16889;67.864;24.990;2022-11-21T10:29:38;2.17;;;0.98;;
30062;SDS011;16889;67.864;24.990;2022-11-21T10:34:34;1.00;;;0.70;;
30062;SDS011;16889;67.864;24.990;2022-11-21T10:44:26;3.30;;;0.88;;
30062;SDS011;16889;67.864;24.990;2022-11-21T10:49:32;1.25;;;0.88;;
30062;SDS011;16889;67.864;24.990;2022-11-21T10:54:19;2.08;;;0.90;;
30062;SDS011;16889;67.864;24.990;2022-11-21T10:59:22;1.92;;;0.65;;
30062;SDS011;16889;67.864;24.990;2022-11-21T11:09:01;1.23;;;0.93;;
30062;SDS011;16889;67.864;24.990;2022-11-21T11:14:04;1.25;;;0.80;;
30062;SDS011;16889;67.864;24.990;2022-11-21T11:19:14;2.53;;;0.88;;
30062;SDS011;16889;67.864;24.990;2022-11-21T11:24:25;0.95;;;0.73;;
30062;SDS011;16889;67.864;24.990;2022-11-21T11:29:21;1.60;;;0.80;;
30062;SDS011;16889;67.864;24.990;2022-11-21T11:34:14;1.92;;;0.88;;
30062;SDS011;16889;67.864;24.990;2022-11-21T11:39:06;4.25;;;1.70;;
30062;SDS011;16889;67.864;24.990;2022-11-21T11:44:15;7.20;;;1.75;;
30062;SDS011;16889;67.864;24.990;2022-11-21T11:54:57;1.40;;;0.80;;
30062;SDS011;16889;67.864;24.990;2022-11-21T11:59:49;1.83;;;0.95;;
30062;SDS011;16889;67.864;24.990;2022-11-21T12:05:14;2.15;;;1.45;;
30062;SDS011;16889;67.864;24.990;2022-11-21T12:10:12;5.38;;;1.40;;
30062;SDS011;16889;67.864;24.990;2022-11-21T12:36:13;3.33;;;1.35;;
30062;SDS011;16889;67.864;24.990;2022-11-21T12:47:05;1.52;;;0.90;;
30062;SDS011;16889;67.864;24.990;2022-11-21T12:57:12;2.92;;;1.10;;
30062;SDS011;16889;67.864;24.990;2022-11-21T13:02:03;2.05;;;1.40;;
30062;SDS011;16889;67.864;24.990;2022-11-21T13:06:57;2.40;;;0.98;;
30062;SDS011;16889;67.864;24.990;2022-11-21T13:27:29;1.70;;;0.82;;
30062;SDS011;16889;67.864;24.990;2022-11-21T13:38:11;0.73;;;0.63;;
30062;SDS011;16889;67.864;24.990;2022-11-21T13:47:59;1.63;;;0.90;;
30062;SDS011;16889;67.864;24.990;2022-11-21T13:53:23;0.80;;;0.80;;
30062;SDS011;16889;67.864;24.990;2022-11-21T13:58:32;11.07;;;1.10;;
30062;SDS011;16889;67.864;24.990;2022-11-21T14:03:45;2.20;;;0.90;;
30062;SDS011;16889;67.864;24.990;2022-11-21T14:08:39;1.92;;;0.82;;
30062;SDS011;16889;67.864;24.990;2022-11-21T14:13:28;2.33;;;1.20;;
30062;SDS011;16889;67.864;24.990;2022-11-21T14:18:21;1.92;;;1.17;;
30062;SDS011;16889;67.864;24.990;2022-11-21T14:23:16;1.17;;;0.90;;
30062;SDS011;16889;67.864;24.990;2022-11-21T14:28:05;1.98;;;0.88;;
30062;SDS011;16889;67.864;24.990;2022-11-21T14:33:20;1.60;;;0.80;;
30062;SDS011;16889;67.864;24.990;2022-11-21T14:38:11;1.42;;;0.93;;
30062;SDS011;16889;67.864;24.990;2022-11-21T14:42:58;1.88;;;0.90;;
30062;SDS011;16889;67.864;24.990;2022-11-21T14:47:46;1.73;;;1.05;;
30062;SDS011;16889;67.864;24.990;2022-11-21T14:52:36;4.72;;;1.17;;
30062;SDS011;16889;67.864;24.990;2022-11-21T14:57:26;4.50;;;1.30;;
30062;SDS011;16889;67.864;24.990;2022-11-21T15:07:14;8.88;;;2.67;;
30062;SDS011;16889;67.864;24.990;2022-11-21T15:12:04;19.75;;;3.78;;
30062;SDS011;16889;67.864;24.990;2022-11-21T15:16:53;3.40;;;1.15;;
30062;SDS011;16889;67.864;24.990;2022-11-21T15:21:45;6.07;;;1.80;;
30062;SDS011;16889;67.864;24.990;2022-11-21T15:26:32;2.80;;;1.30;;
30062;SDS011;16889;67.864;24.990;2022-11-21T15:31:20;2.88;;;1.08;;
30062;SDS011;16889;67.864;24.990;2022-11-21T15:36:11;3.13;;;1.70;;
30062;SDS011;16889;67.864;24.990;2022-11-21T15:45:58;11.07;;;2.85;;
30062;SDS011;16889;67.864;24.990;2022-11-21T15:50:46;3.85;;;1.50;;
30062;SDS011;16889;67.864;24.990;2022-11-21T15:55:32;9.00;;;2.38;;
30062;SDS011;16889;67.864;24.990;2022-11-21T16:00:18;4.25;;;2.25;;
30062;SDS011;16889;67.864;24.990;2022-11-21T16:05:05;4.50;;;1.67;;
30062;SDS011;16889;67.864;24.990;2022-11-21T16:09:54;5.07;;;1.73;;
30062;SDS011;16889;67.864;24.990;2022-11-21T16:14:40;3.25;;;1.15;;
30062;SDS011;16889;67.864;24.990;2022-11-21T16:19:26;2.85;;;1.27;;
30062;SDS011;16889;67.864;24.990;2022-11-21T16:24:12;1.15;;;0.85;;
30062;SDS011;16889;67.864;24.990;2022-11-21T16:28:58;3.72;;;0.95;;
30062;SDS011;16889;67.864;24.990;2022-11-21T16:33:45;3.30;;;1.40;;
30062;SDS011;16889;67.864;24.990;2022-11-21T16:38:31;1.27;;;0.70;;
30062;SDS011;16889;67.864;24.990;2022-11-21T16:43:17;0.75;;;0.65;;
30062;SDS011;16889;67.864;24.990;2022-11-21T16:48:04;3.42;;;1.05;;
30062;SDS011;16889;67.864;24.990;2022-11-21T16:52:50;1.95;;;1.20;;
30062;SDS011;16889;67.864;24.990;2022-11-21T16:57:36;3.25;;;1.10;;
30062;SDS011;16889;67.864;24.990;2022-11-21T17:02:22;1.60;;;0.77;;
30062;SDS011;16889;67.864;24.990;2022-11-21T17:07:08;3.88;;;1.23;;
30062;SDS011;16889;67.864;24.990;2022-11-21T17:11:55;2.47;;;1.35;;
30062;SDS011;16889;67.864;24.990;2022-11-21T17:16:41;2.72;;;0.85;;
30062;SDS011;16889;67.864;24.990;2022-11-21T17:21:28;1.67;;;1.13;;
30062;SDS011;16889;67.864;24.990;2022-11-21T17:26:15;1.52;;;0.73;;
30062;SDS011;16889;67.864;24.990;2022-11-21T17:31:06;1.15;;;1.00;;
30062;SDS011;16889;67.864;24.990;2022-11-21T17:35:54;1.67;;;0.85;;
30062;SDS011;16889;67.864;24.990;2022-11-21T17:40:40;2.25;;;1.10;;
30062;SDS011;16889;67.864;24.990;2022-11-21T17:45:26;2.13;;;0.95;;
30062;SDS011;16889;67.864;24.990;2022-11-21T17:50:13;1.55;;;0.73;;
30062;SDS011;16889;67.864;24.990;2022-11-21T17:54:59;1.48;;;0.80;;
30062;SDS011;16889;67.864;24.990;2022-11-21T17:59:45;2.00;;;0.98;;
30062;SDS011;16889;67.864;24.990;2022-11-21T18:04:31;1.42;;;0.93;;
30062;SDS011;16889;67.864;24.990;2022-11-21T18:09:18;2.70;;;1.15;;
30062;SDS011;16889;67.864;24.990;2022-11-21T18:14:04;10.02;;;1.42;;
30062;SDS011;16889;67.864;24.990;2022-11-21T18:18:51;10.63;;;1.70;;
30062;SDS011;16889;67.864;24.990;2022-11-21T18:23:38;3.92;;;1.15;;
30062;SDS011;16889;67.864;24.990;2022-11-21T18:28:24;3.15;;;0.93;;
30062;SDS011;16889;67.864;24.990;2022-11-21T18:33:10;3.40;;;1.27;;
30062;SDS011;16889;67.864;24.990;2022-11-21T18:37:56;2.22;;;1.08;;
30062;SDS011;16889;67.864;24.990;2022-11-21T18:42:44;2.47;;;1.35;;
30062;SDS011;16889;67.864;24.990;2022-11-21T18:47:33;6.03;;;1.38;;
30062;SDS011;16889;67.864;24.990;2022-11-21T18:52:19;2.95;;;1.50;;
30062;SDS011;16889;67.864;24.990;2022-11-21T18:57:11;3.92;;;1.40;;
30062;SDS011;16889;67.864;24.990;2022-11-21T19:02:00;6.95;;;1.63;;
30062;SDS011;16889;67.864;24.990;2022-11-21T19:06:48;5.30;;;1.98;;
30062;SDS011;16889;67.864;24.990;2022-11-21T19:11:34;8.73;;;3.58;;
30062;SDS011;16889;67.864;24.990;2022-11-21T19:16:21;4.65;;;2.20;;
30062;SDS011;16889;67.864;24.990;2022-11-21T19:21:12;4.05;;;2.50;;
30062;SDS011;16889;67.864;24.990;2022-11-21T19:26:03;4.80;;;1.63;;
30062;SDS011;16889;67.864;24.990;2022-11-21T19:30:50;4.28;;;1.55;;
30062;SDS011;16889;67.864;24.990;2022-11-21T19:35:36;5.50;;;1.80;;
30062;SDS011;16889;67.864;24.990;2022-11-21T19:40:22;6.03;;;2.83;;
30062;SDS011;16889;67.864;24.990;2022-11-21T19:45:08;10.90;;;5.03;;
30062;SDS011;16889;67.864;24.990;2022-11-21T19:49:54;10.73;;;4.97;;
30062;SDS011;16889;67.864;24.990;2022-11-21T19:54:40;4.82;;;2.25;;
30062;SDS011;16889;67.864;24.990;2022-11-21T19:59:26;7.05;;;2.00;;
30062;SDS011;16889;67.864;24.990;2022-11-21T20:04:15;8.18;;;3.13;;
30062;SDS011;16889;67.864;24.990;2022-11-21T20:09:02;10.40;;;2.60;;
30062;SDS011;16889;67.864;24.990;2022-11-21T20:13:53;4.55;;;2.65;;
30062;SDS011;16889;67.864;24.990;2022-11-21T20:18:39;3.30;;;2.10;;
30062;SDS011;16889;67.864;24.990;2022-11-21T20:23:25;5.63;;;2.08;;
30062;SDS011;16889;67.864;24.990;2022-11-21T20:28:11;7.97;;;2.22;;
30062;SDS011;16889;67.864;24.990;2022-11-21T20:32:57;6.03;;;2.00;;
30062;SDS011;16889;67.864;24.990;2022-11-21T20:37:43;5.13;;;1.92;;
30062;SDS011;16889;67.864;24.990;2022-11-21T20:42:29;7.90;;;1.85;;
30062;SDS011;16889;67.864;24.990;2022-11-21T20:47:16;3.13;;;1.50;;
30062;SDS011;16889;67.864;24.990;2022-11-21T20:52:02;4.03;;;1.92;;
30062;SDS011;16889;67.864;24.990;2022-11-21T20:56:48;5.43;;;1.80;;
30062;SDS011;16889;67.864;24.990;2022-11-21T21:01:34;5.85;;;2.17;;
30062;SDS011;16889;67.864;24.990;2022-11-21T21:06:20;6.57;;;1.95;;
30062;SDS011;16889;67.864;24.990;2022-11-21T21:11:09;4.18;;;2.00;;
30062;SDS011;16889;67.864;24.990;2022-11-21T21:16:03;6.75;;;1.35;;
30062;SDS011;16889;67.864;24.990;2022-11-21T21:20:51;5.53;;;1.75;;
30062;SDS011;16889;67.864;24.990;2022-11-21T21:25:37;3.13;;;1.40;;
30062;SDS011;16889;67.864;24.990;2022-11-21T21:30:23;5.40;;;1.50;;
30062;SDS011;16889;67.864;24.990;2022-11-21T21:35:10;5.88;;;2.08;;
30062;SDS011;16889;67.864;24.990;2022-11-21T21:39:56;3.85;;;1.85;;
30062;SDS011;16889;67.864;24.990;2022-11-21T21:44:42;4.18;;;1.58;;
30062;SDS011;16889;67.864;24.990;2022-11-21T21:49:28;7.13;;;1.92;;
30062;SDS011;16889;67.864;24.990;2022-11-21T21:54:14;2.78;;;1.33;;
30062;SDS011;16889;67.864;24.990;2022-11-21T21:59:02;2.88;;;1.52;;
30062;SDS011;16889;67.864;24.990;2022-11-21T22:03:51;4.28;;;1.60;;
30062;SDS011;16889;67.864;24.990;2022-11-21T22:08:39;7.60;;;2.10;;
30062;SDS011;16889;67.864;24.990;2022-11-21T22:13:25;4.75;;;2.03;;
30062;SDS011;16889;67.864;24.990;2022-11-21T22:18:11;5.68;;;1.75;;
30062;SDS011;16889;67.864;24.990;2022-11-21T22:22:57;5.05;;;1.60;;
30062;SDS011;16889;67.864;24.990;2022-11-21T22:27:43;4.53;;;1.65;;
30062;SDS011;16889;67.864;24.990;2022-11-21T22:32:29;7.75;;;1.98;;
30062;SDS011;16889;67.864;24.990;2022-11-21T22:37:15;2.88;;;1.55;;
30062;SDS011;16889;67.864;24.990;2022-11-21T22:42:01;3.75;;;1.55;;
30062;SDS011;16889;67.864;24.990;2022-11-21T22:46:47;8.93;;;2.60;;
30062;SDS011;16889;67.864;24.990;2022-11-21T22:51:33;4.88;;;1.38;;
30062;SDS011;16889;67.864;24.990;2022-11-21T22:56:20;8.68;;;2.22;;
30062;SDS011;16889;67.864;24.990;2022-11-21T23:01:08;5.88;;;1.85;;
30062;SDS011;16889;67.864;24.990;2022-11-21T23:05:59;5.72;;;1.55;;
30062;SDS011;16889;67.864;24.990;2022-11-21T23:10:46;3.33;;;1.50;;
30062;SDS011;16889;67.864;24.990;2022-11-21T23:15:33;6.03;;;1.77;;
30062;SDS011;16889;67.864;24.990;2022-11-21T23:20:19;4.28;;;1.58;;
30062;SDS011;16889;67.864;24.990;2022-11-21T23:25:04;5.72;;;2.10;;
30062;SDS011;16889;67.864;24.990;2022-11-21T23:29:51;6.15;;;1.80;;
30062;SDS011;16889;67.864;24.990;2022-11-21T23:34:36;4.20;;;2.03;;
30062;SDS011;16889;67.864;24.990;2022-11-21T23:39:22;2.85;;;1.67;;
30062;SDS011;16889;67.864;24.990;2022-11-21T23:44:08;6.85;;;1.88;;
30062;SDS011;16889;67.864;24.990;2022-11-21T23:48:54;4.20;;;1.77;;
30062;SDS011;16889;67.864;24.990;2022-11-21T23:53:41;4.82;;;1.50;;
30062;SDS011;16889;67.864;24.990;2022-11-21T23:58:27;3.67;;;1.55;;
